Time;durP1;ratioP1;P1;durP2;ratioP2;P2;SDS_P1;SDS_P2;PMS_P1;PMS_P2;Temp;Humidity;BMP_temperature;BMP_pressure;BME280_temperature;BME280_humidity;BME280_pressure;Samples;Min_cycle;Max_cycle;Signal;HPM_P1;HPM_P2
2021/11/18 00:00:27;;;;;;;21.92;4.50;;;;;;;;;;5043053;28;20052;-68
2021/11/18 00:02:53;;;;;;;26.95;4.30;;;;;;;;;;5048245;28;20045;-68
2021/11/18 00:05:21;;;;;;;26.80;3.70;;;;;;;;;;5049584;28;20398;-68
2021/11/18 00:07:48;;;;;;;22.98;4.50;;;;;;;;;;5047493;28;20056;-68
2021/11/18 00:10:16;;;;;;;27.27;4.43;;;;;;;;;;5050015;28;20041;-68
2021/11/18 00:12:44;;;;;;;22.10;4.38;;;;;;;;;;5051362;28;20097;-68
2021/11/18 00:15:11;;;;;;;31.88;4.13;;;;;;;;;;5048216;28;20123;-68
2021/11/18 00:17:37;;;;;;;23.17;3.70;;;;;;;;;;5046740;28;20390;-68
2021/11/18 00:20:05;;;;;;;29.58;4.53;;;;;;;;;;5050077;28;20045;-69
2021/11/18 00:22:32;;;;;;;31.13;4.80;;;;;;;;;;5053599;28;20041;-68
2021/11/18 00:24:58;;;;;;;16.88;3.10;;;;;;;;;;5054356;28;20052;-68
2021/11/18 00:27:27;;;;;;;22.63;4.43;;;;;;;;;;5055698;28;20044;-69
2021/11/18 00:29:53;;;;;;;26.85;4.18;;;;;;;;;;5054009;28;20056;-69
2021/11/18 00:32:19;;;;;;;24.90;4.50;;;;;;;;;;5056136;28;20470;-68
2021/11/18 00:34:45;;;;;;;29.90;4.68;;;;;;;;;;5055014;28;20040;-68
2021/11/18 00:37:12;;;;;;;35.47;5.80;;;;;;;;;;5051959;28;20049;-68
2021/11/18 00:39:38;;;;;;;44.10;6.25;;;;;;;;;;5051516;28;20037;-69
2021/11/18 00:42:05;;;;;;;42.78;7.22;;;;;;;;;;5050960;28;20045;-68
2021/11/18 00:44:31;;;;;;;43.13;6.22;;;;;;;;;;5049719;28;20041;-68
2021/11/18 00:46:57;;;;;;;44.05;6.32;;;;;;;;;;5053802;28;20127;-68
2021/11/18 00:49:23;;;;;;;39.83;6.50;;;;;;;;;;5052292;28;20128;-68
2021/11/18 00:51:50;;;;;;;38.85;6.80;;;;;;;;;;5052222;28;20037;-68
2021/11/18 00:54:16;;;;;;;36.20;6.85;;;;;;;;;;5053744;28;20452;-68
2021/11/18 00:56:43;;;;;;;39.63;7.28;;;;;;;;;;5053425;28;20041;-69
2021/11/18 00:59:09;;;;;;;29.83;5.70;;;;;;;;;;5056065;28;20495;-68
2021/11/18 01:01:43;;;;;;;45.67;7.35;;;;;;;;;;5033815;28;20045;-69
2021/11/18 01:04:11;;;;;;;33.95;6.68;;;;;;;;;;5057044;28;20060;-69
2021/11/18 01:06:37;;;;;;;35.85;6.90;;;;;;;;;;5047752;28;20454;-68
2021/11/18 01:09:04;;;;;;;40.03;7.25;;;;;;;;;;5057168;28;20381;-68
2021/11/18 01:11:32;;;;;;;37.17;7.93;;;;;;;;;;5050967;28;20079;-68
2021/11/18 01:13:59;;;;;;;48.47;8.32;;;;;;;;;;5050931;28;20041;-68
2021/11/18 01:16:26;;;;;;;45.53;8.27;;;;;;;;;;5059230;28;20412;-68
2021/11/18 01:18:53;;;;;;;38.17;8.00;;;;;;;;;;5057528;28;20496;-69
2021/11/18 01:21:20;;;;;;;48.47;8.50;;;;;;;;;;5052805;28;20044;-68
2021/11/18 01:23:47;;;;;;;40.33;6.40;;;;;;;;;;5038684;28;20041;-68
2021/11/18 01:26:15;;;;;;;38.75;6.60;;;;;;;;;;5051937;28;20522;-68
2021/11/18 01:28:41;;;;;;;36.53;5.88;;;;;;;;;;5049705;28;20569;-68
2021/11/18 01:31:08;;;;;;;36.85;6.13;;;;;;;;;;5053684;28;20041;-68
2021/11/18 01:33:35;;;;;;;39.92;7.78;;;;;;;;;;5049097;28;20129;-68
2021/11/18 01:36:01;;;;;;;41.65;6.53;;;;;;;;;;5052142;28;20396;-69
2021/11/18 01:38:28;;;;;;;49.65;7.43;;;;;;;;;;5054060;28;20116;-68
2021/11/18 01:40:56;;;;;;;50.17;7.78;;;;;;;;;;5053835;28;20056;-68
2021/11/18 01:43:23;;;;;;;46.15;6.72;;;;;;;;;;5051871;28;20136;-68
2021/11/18 01:45:50;;;;;;;32.25;7.25;;;;;;;;;;5046859;28;20032;-68
2021/11/18 01:48:16;;;;;;;42.03;6.95;;;;;;;;;;5053084;28;20047;-68
2021/11/18 01:50:44;;;;;;;41.72;8.52;;;;;;;;;;5049249;28;20128;-68
2021/11/18 01:53:13;;;;;;;42.63;7.40;;;;;;;;;;5049904;28;20059;-68
2021/11/18 01:55:40;;;;;;;32.58;7.88;;;;;;;;;;5048399;28;20119;-68
2021/11/18 01:58:06;;;;;;;44.58;7.82;;;;;;;;;;5052040;28;20045;-68
2021/11/18 02:00:35;;;;;;;58.10;7.88;;;;;;;;;;5046381;28;20049;-68
2021/11/18 02:03:02;;;;;;;61.75;8.68;;;;;;;;;;5052788;28;20066;-69
2021/11/18 02:05:34;;;;;;;39.83;8.75;;;;;;;;;;5049684;28;20110;-68
2021/11/18 02:08:00;;;;;;;47.03;10.00;;;;;;;;;;5059844;28;20164;-68
2021/11/18 02:10:29;;;;;;;39.05;8.25;;;;;;;;;;5053254;28;20048;-68
2021/11/18 02:12:57;;;;;;;41.03;9.23;;;;;;;;;;5050744;28;20827;-68
2021/11/18 02:15:25;;;;;;;42.72;7.63;;;;;;;;;;5051755;28;20051;-68
2021/11/18 02:17:52;;;;;;;37.95;8.05;;;;;;;;;;5052865;28;20084;-69
2021/11/18 02:20:24;;;;;;;45.20;9.52;;;;;;;;;;5048950;28;20050;-68
2021/11/18 02:22:51;;;;;;;43.65;8.75;;;;;;;;;;5047845;28;20084;-68
2021/11/18 02:25:17;;;;;;;47.75;8.18;;;;;;;;;;5051912;28;20052;-68
2021/11/18 02:27:43;;;;;;;38.58;9.02;;;;;;;;;;5064793;28;20392;-68
2021/11/18 02:30:11;;;;;;;39.97;8.02;;;;;;;;;;5051449;28;20041;-68
2021/11/18 02:32:40;;;;;;;34.47;7.10;;;;;;;;;;5049990;28;20095;-69
2021/11/18 02:35:11;;;;;;;37.33;7.20;;;;;;;;;;5052926;28;20126;-68
2021/11/18 02:37:38;;;;;;;47.20;9.20;;;;;;;;;;5047055;28;20069;-68
2021/11/18 02:40:05;;;;;;;56.65;9.15;;;;;;;;;;5050221;28;20029;-68
2021/11/18 02:42:33;;;;;;;38.42;8.77;;;;;;;;;;5052620;28;20049;-68
2021/11/18 02:45:00;;;;;;;48.88;8.75;;;;;;;;;;5051813;28;20040;-69
2021/11/18 02:47:26;;;;;;;44.95;9.57;;;;;;;;;;5052335;28;20040;-69
2021/11/18 02:49:56;;;;;;;45.00;8.45;;;;;;;;;;5052594;28;20519;-69
2021/11/18 02:52:27;;;;;;;39.72;7.25;;;;;;;;;;5050044;28;20496;-69
2021/11/18 02:54:54;;;;;;;45.67;7.85;;;;;;;;;;5066580;28;20053;-68
2021/11/18 02:57:20;;;;;;;43.45;8.70;;;;;;;;;;5050593;28;20040;-68
2021/11/18 02:59:46;;;;;;;41.08;8.25;;;;;;;;;;5048735;28;20087;-69
2021/11/18 03:02:13;;;;;;;56.45;8.65;;;;;;;;;;5046719;28;20080;-68
2021/11/18 03:04:39;;;;;;;46.03;7.93;;;;;;;;;;5049680;28;20053;-68
2021/11/18 03:07:06;;;;;;;47.90;8.40;;;;;;;;;;5045963;28;20057;-68
2021/11/18 03:09:32;;;;;;;47.90;8.68;;;;;;;;;;5049065;28;20049;-68
2021/11/18 03:11:59;;;;;;;44.13;9.30;;;;;;;;;;5048106;28;20044;-68
2021/11/18 03:14:27;;;;;;;38.33;7.95;;;;;;;;;;5049510;28;20443;-68
2021/11/18 03:16:53;;;;;;;46.05;9.43;;;;;;;;;;5048077;28;20045;-68
2021/11/18 03:19:19;;;;;;;49.15;9.82;;;;;;;;;;5036574;28;20037;-69
2021/11/18 03:21:45;;;;;;;52.10;8.35;;;;;;;;;;5051757;28;20388;-69
2021/11/18 03:24:12;;;;;;;50.58;8.43;;;;;;;;;;5048808;28;20095;-69
2021/11/18 03:26:38;;;;;;;42.38;9.13;;;;;;;;;;5049472;28;20052;-68
2021/11/18 03:29:05;;;;;;;51.58;8.52;;;;;;;;;;5047509;28;20480;-69
2021/11/18 03:31:32;;;;;;;59.20;8.73;;;;;;;;;;5051191;28;20049;-69
2021/11/18 03:34:00;;;;;;;53.08;8.88;;;;;;;;;;5050967;28;20037;-69
2021/11/18 03:36:27;;;;;;;68.53;8.63;;;;;;;;;;5048639;28;20046;-69
2021/11/18 03:38:54;;;;;;;44.72;7.82;;;;;;;;;;5050531;28;20073;-68
2021/11/18 03:41:21;;;;;;;50.17;8.63;;;;;;;;;;5048554;28;20071;-69
2021/11/18 03:43:50;;;;;;;41.92;9.65;;;;;;;;;;5058065;28;20069;-68
2021/11/18 03:46:17;;;;;;;53.38;8.30;;;;;;;;;;5054540;28;20048;-68
2021/11/18 03:48:43;;;;;;;44.42;8.80;;;;;;;;;;5043630;28;20033;-68
2021/11/18 03:51:10;;;;;;;39.05;7.93;;;;;;;;;;5053214;28;20057;-68
2021/11/18 03:53:37;;;;;;;51.35;8.32;;;;;;;;;;5050454;28;20672;-68
2021/11/18 03:56:04;;;;;;;43.67;8.07;;;;;;;;;;5053391;28;20462;-69
2021/11/18 03:58:31;;;;;;;43.33;7.00;;;;;;;;;;5042258;28;20052;-69
2021/11/18 04:00:57;;;;;;;46.45;8.32;;;;;;;;;;5052072;28;20048;-69
2021/11/18 04:03:23;;;;;;;39.85;6.88;;;;;;;;;;5051228;28;20059;-69
2021/11/18 04:05:49;;;;;;;47.28;8.35;;;;;;;;;;5047416;28;20041;-69
2021/11/18 04:08:16;;;;;;;45.85;7.45;;;;;;;;;;5051129;28;20052;-69
2021/11/18 04:10:42;;;;;;;40.47;7.32;;;;;;;;;;5052218;28;20044;-69
2021/11/18 04:13:09;;;;;;;54.67;7.53;;;;;;;;;;5052774;28;20051;-68
2021/11/18 04:15:35;;;;;;;47.00;6.93;;;;;;;;;;5049237;28;20036;-68
2021/11/18 04:18:02;;;;;;;40.50;8.13;;;;;;;;;;5054780;28;20102;-68
2021/11/18 04:20:29;;;;;;;44.88;8.18;;;;;;;;;;5058098;28;20549;-69
2021/11/18 04:22:55;;;;;;;50.53;8.05;;;;;;;;;;5054315;28;20049;-68
2021/11/18 04:25:23;;;;;;;50.85;8.73;;;;;;;;;;5049607;28;20095;-69
2021/11/18 04:27:50;;;;;;;38.92;7.57;;;;;;;;;;5049127;28;20106;-68
2021/11/18 04:30:17;;;;;;;65.55;10.60;;;;;;;;;;5047286;28;20048;-68
2021/11/18 04:32:44;;;;;;;47.22;7.53;;;;;;;;;;5046581;28;20507;-69
2021/11/18 04:35:11;;;;;;;42.15;8.10;;;;;;;;;;5050713;28;20052;-69
2021/11/18 04:37:37;;;;;;;45.08;8.48;;;;;;;;;;5047884;28;20033;-68
2021/11/18 04:40:04;;;;;;;48.25;7.93;;;;;;;;;;5048382;28;20049;-68
2021/11/18 04:42:30;;;;;;;47.03;7.95;;;;;;;;;;5048253;28;20037;-68
2021/11/18 04:44:56;;;;;;;55.42;8.18;;;;;;;;;;5049697;28;20106;-68
2021/11/18 04:47:22;;;;;;;39.28;6.90;;;;;;;;;;5051426;28;20041;-68
2021/11/18 04:49:49;;;;;;;42.55;8.10;;;;;;;;;;5048975;28;20049;-69
2021/11/18 04:52:16;;;;;;;40.80;8.38;;;;;;;;;;5050151;28;20037;-68
2021/11/18 04:54:43;;;;;;;51.80;8.80;;;;;;;;;;5050444;28;20433;-68
2021/11/18 04:57:09;;;;;;;38.03;8.27;;;;;;;;;;5045972;28;20053;-68
2021/11/18 04:59:36;;;;;;;49.35;9.20;;;;;;;;;;5048867;28;20037;-69
2021/11/18 05:02:02;;;;;;;45.55;9.82;;;;;;;;;;5045071;28;20037;-68
2021/11/18 05:04:29;;;;;;;45.97;8.57;;;;;;;;;;5046621;28;20048;-68
2021/11/18 05:06:55;;;;;;;50.15;8.30;;;;;;;;;;5049690;28;20111;-68
2021/11/18 05:09:21;;;;;;;45.40;8.35;;;;;;;;;;5051643;28;20588;-68
2021/11/18 05:11:48;;;;;;;49.38;9.10;;;;;;;;;;5049107;28;20041;-69
2021/11/18 05:14:14;;;;;;;39.50;7.03;;;;;;;;;;5055766;28;20028;-68
2021/11/18 05:16:40;;;;;;;60.92;9.05;;;;;;;;;;5057500;28;20040;-68
2021/11/18 05:19:07;;;;;;;52.30;10.02;;;;;;;;;;5056596;28;20053;-68
2021/11/18 05:21:33;;;;;;;51.53;7.85;;;;;;;;;;5053858;28;20112;-68
2021/11/18 05:24:01;;;;;;;53.55;9.25;;;;;;;;;;5054397;28;20511;-68
2021/11/18 05:26:27;;;;;;;44.10;8.23;;;;;;;;;;5054359;28;20072;-68
2021/11/18 05:28:54;;;;;;;49.28;8.13;;;;;;;;;;5051951;28;20053;-68
2021/11/18 05:31:22;;;;;;;49.45;7.07;;;;;;;;;;5051133;28;20095;-69
2021/11/18 05:33:49;;;;;;;37.03;7.30;;;;;;;;;;5051173;28;20485;-69
2021/11/18 05:36:16;;;;;;;38.75;6.80;;;;;;;;;;5052485;28;20048;-69
2021/11/18 05:38:43;;;;;;;50.83;8.90;;;;;;;;;;5053114;28;20052;-69
2021/11/18 05:41:09;;;;;;;42.97;6.65;;;;;;;;;;5049157;28;20447;-69
2021/11/18 05:43:40;;;;;;;42.58;6.57;;;;;;;;;;5056112;28;20048;-68
2021/11/18 05:46:06;;;;;;;37.15;6.22;;;;;;;;;;5050317;28;20094;-69
2021/11/18 05:48:33;;;;;;;46.58;8.32;;;;;;;;;;5056543;28;20042;-70
2021/11/18 05:51:00;;;;;;;45.22;7.47;;;;;;;;;;5052637;28;20056;-69
2021/11/18 05:53:29;;;;;;;41.58;6.72;;;;;;;;;;5046530;28;20150;-67
2021/11/18 05:55:56;;;;;;;41.55;6.10;;;;;;;;;;5050253;28;20076;-68
2021/11/18 05:58:22;;;;;;;35.90;7.13;;;;;;;;;;5043099;28;20049;-68
2021/11/18 06:00:49;;;;;;;34.65;6.38;;;;;;;;;;5038958;28;20043;-69
2021/11/18 06:03:15;;;;;;;41.65;6.57;;;;;;;;;;5045797;28;20045;-71
2021/11/18 06:05:42;;;;;;;36.08;6.15;;;;;;;;;;5050737;28;20041;-68
2021/11/18 06:08:08;;;;;;;47.88;6.93;;;;;;;;;;5050045;28;20057;-68
2021/11/18 06:10:34;;;;;;;39.03;6.97;;;;;;;;;;5051478;28;20080;-69
2021/11/18 06:13:01;;;;;;;37.72;7.13;;;;;;;;;;5050341;28;20347;-69
2021/11/18 06:15:28;;;;;;;53.10;7.38;;;;;;;;;;5050201;28;20500;-69
2021/11/18 06:17:54;;;;;;;39.38;6.55;;;;;;;;;;5049647;28;20124;-69
2021/11/18 06:20:21;;;;;;;46.47;7.75;;;;;;;;;;5050752;28;20036;-69
2021/11/18 06:22:48;;;;;;;45.67;6.00;;;;;;;;;;5048914;28;20108;-71
2021/11/18 06:25:15;;;;;;;40.05;6.68;;;;;;;;;;5051541;28;20071;-71
2021/11/18 06:27:43;;;;;;;36.33;5.90;;;;;;;;;;5049564;28;20519;-68
2021/11/18 06:30:11;;;;;;;41.03;6.80;;;;;;;;;;5032618;28;20045;-68
2021/11/18 06:32:37;;;;;;;39.33;8.35;;;;;;;;;;5050111;28;20056;-69
2021/11/18 06:35:04;;;;;;;52.50;8.10;;;;;;;;;;5048964;28;20053;-67
2021/11/18 06:37:30;;;;;;;32.35;6.38;;;;;;;;;;5052068;28;20036;-67
2021/11/18 06:39:56;;;;;;;31.15;5.85;;;;;;;;;;5034210;28;20107;-67
2021/11/18 06:42:23;;;;;;;37.95;6.50;;;;;;;;;;5050171;28;20132;-67
2021/11/18 06:44:49;;;;;;;43.08;6.85;;;;;;;;;;5051599;28;20123;-66
2021/11/18 06:47:17;;;;;;;33.58;5.90;;;;;;;;;;5051851;28;20368;-67
2021/11/18 06:49:43;;;;;;;35.80;6.47;;;;;;;;;;5050945;28;20045;-67
2021/11/18 06:52:11;;;;;;;47.60;7.50;;;;;;;;;;5050479;28;20045;-67
2021/11/18 06:54:37;;;;;;;31.55;5.97;;;;;;;;;;5051249;28;20037;-66
2021/11/18 06:57:04;;;;;;;30.33;6.22;;;;;;;;;;5048874;28;20040;-66
2021/11/18 06:59:31;;;;;;;36.03;5.72;;;;;;;;;;5051350;28;20108;-67
2021/11/18 07:01:57;;;;;;;30.92;4.72;;;;;;;;;;5050023;28;20041;-67
2021/11/18 07:04:24;;;;;;;33.83;5.82;;;;;;;;;;5048603;28;20052;-67
2021/11/18 07:06:50;;;;;;;34.08;5.10;;;;;;;;;;5051191;28;20485;-67
2021/11/18 07:09:17;;;;;;;36.33;5.35;;;;;;;;;;5050796;28;20059;-67
2021/11/18 07:11:43;;;;;;;21.08;4.53;;;;;;;;;;5050406;28;20057;-66
2021/11/18 07:14:09;;;;;;;31.80;5.00;;;;;;;;;;5051007;28;20049;-67
2021/11/18 07:16:36;;;;;;;34.90;6.35;;;;;;;;;;5049828;28;20045;-67
2021/11/18 07:19:05;;;;;;;29.50;5.40;;;;;;;;;;5048718;28;20045;-67
2021/11/18 07:21:32;;;;;;;37.83;7.35;;;;;;;;;;5051405;28;20524;-67
2021/11/18 07:23:59;;;;;;;33.30;6.65;;;;;;;;;;5050741;28;20469;-67
2021/11/18 07:26:25;;;;;;;37.08;5.80;;;;;;;;;;5049546;28;20447;-67
2021/11/18 07:28:52;;;;;;;31.33;5.15;;;;;;;;;;5050884;28;20041;-67
2021/11/18 07:31:18;;;;;;;35.45;6.45;;;;;;;;;;5048548;28;20051;-67
2021/11/18 07:33:44;;;;;;;34.47;5.55;;;;;;;;;;5049437;28;20068;-67
2021/11/18 07:36:11;;;;;;;30.08;5.55;;;;;;;;;;5051082;28;20037;-71
2021/11/18 07:38:37;;;;;;;32.72;5.35;;;;;;;;;;5047615;28;20061;-67
2021/11/18 07:41:04;;;;;;;43.85;7.00;;;;;;;;;;5036849;28;20087;-67
2021/11/18 07:43:32;;;;;;;35.35;6.55;;;;;;;;;;5041503;28;20114;-67
2021/11/18 07:46:00;;;;;;;29.25;5.07;;;;;;;;;;5035358;28;20041;-67
2021/11/18 07:48:27;;;;;;;36.13;5.72;;;;;;;;;;5041046;28;20076;-69
2021/11/18 07:50:54;;;;;;;29.73;5.18;;;;;;;;;;5038618;28;20068;-67
2021/11/18 07:53:20;;;;;;;35.03;5.25;;;;;;;;;;5035871;28;20069;-67
2021/11/18 07:55:47;;;;;;;29.77;5.65;;;;;;;;;;5038444;28;20383;-67
2021/11/18 07:58:14;;;;;;;30.45;5.47;;;;;;;;;;5042339;28;20056;-67
2021/11/18 08:00:42;;;;;;;34.33;5.45;;;;;;;;;;5037086;28;20125;-67
2021/11/18 08:03:10;;;;;;;35.17;6.45;;;;;;;;;;5039458;28;20112;-67
2021/11/18 08:05:36;;;;;;;31.42;5.90;;;;;;;;;;5039264;28;20435;-67
2021/11/18 08:08:02;;;;;;;37.55;5.72;;;;;;;;;;5040193;28;20072;-67
2021/11/18 08:10:29;;;;;;;39.38;5.68;;;;;;;;;;5034865;28;20045;-67
2021/11/18 08:12:55;;;;;;;28.20;5.25;;;;;;;;;;5043566;28;20049;-68
2021/11/18 08:15:21;;;;;;;33.88;5.20;;;;;;;;;;5054086;28;20055;-67
2021/11/18 08:17:47;;;;;;;27.38;6.63;;;;;;;;;;5042587;28;20041;-67
2021/11/18 08:20:15;;;;;;;33.97;5.28;;;;;;;;;;5046743;28;20056;-67
2021/11/18 08:22:41;;;;;;;25.42;4.97;;;;;;;;;;5032651;28;20357;-68
2021/11/18 08:25:10;;;;;;;38.15;4.93;;;;;;;;;;5049165;28;20123;-67
2021/11/18 08:27:38;;;;;;;34.25;6.38;;;;;;;;;;5045492;28;20050;-67
2021/11/18 08:30:08;;;;;;;31.85;4.90;;;;;;;;;;5056691;28;20139;-67
2021/11/18 08:32:34;;;;;;;34.92;5.72;;;;;;;;;;5039838;28;20111;-68
2021/11/18 08:35:00;;;;;;;27.17;4.55;;;;;;;;;;5040258;28;20574;-67
2021/11/18 08:37:26;;;;;;;29.05;5.05;;;;;;;;;;5040592;28;20045;-67
2021/11/18 08:39:53;;;;;;;35.58;5.93;;;;;;;;;;5037526;28;20095;-67
2021/11/18 08:42:21;;;;;;;33.33;5.25;;;;;;;;;;5041496;28;20068;-67
2021/11/18 08:44:47;;;;;;;32.45;5.07;;;;;;;;;;5042351;28;20033;-67
2021/11/18 08:47:13;;;;;;;32.20;5.28;;;;;;;;;;5052936;28;20052;-67
2021/11/18 08:49:40;;;;;;;33.50;5.25;;;;;;;;;;5052109;28;20179;-68
2021/11/18 08:52:09;;;;;;;32.47;6.28;;;;;;;;;;5052185;28;20045;-67
2021/11/18 08:54:36;;;;;;;29.80;5.10;;;;;;;;;;5053982;28;20041;-68
2021/11/18 08:57:02;;;;;;;30.27;5.50;;;;;;;;;;5052926;28;20041;-68
2021/11/18 08:59:28;;;;;;;29.27;5.43;;;;;;;;;;5053587;28;20365;-68
2021/11/18 09:02:04;;;;;;;29.48;6.60;;;;;;;;;;5053709;28;20107;-68
2021/11/18 09:04:31;;;;;;;28.65;5.07;;;;;;;;;;5053018;28;20510;-68
2021/11/18 09:06:57;;;;;;;33.58;5.00;;;;;;;;;;5052114;28;20412;-68
2021/11/18 09:09:25;;;;;;;27.17;5.60;;;;;;;;;;5049796;28;20382;-68
2021/11/18 09:11:53;;;;;;;30.45;6.28;;;;;;;;;;5053034;28;20049;-67
2021/11/18 09:14:20;;;;;;;21.83;4.53;;;;;;;;;;5051730;28;20029;-68
2021/11/18 09:16:47;;;;;;;23.10;4.47;;;;;;;;;;5051212;28;20051;-69
2021/11/18 09:19:15;;;;;;;36.17;5.13;;;;;;;;;;5051887;28;20507;-68
2021/11/18 09:21:42;;;;;;;33.10;4.50;;;;;;;;;;5051621;28;20048;-67
2021/11/18 09:24:12;;;;;;;24.52;5.55;;;;;;;;;;5051331;28;20049;-68
2021/11/18 09:26:40;;;;;;;26.40;4.40;;;;;;;;;;5053281;28;20048;-67
2021/11/18 09:29:06;;;;;;;28.83;5.47;;;;;;;;;;5053071;28;20406;-68
2021/11/18 09:31:33;;;;;;;23.08;4.10;;;;;;;;;;5050985;28;20158;-68
2021/11/18 09:34:00;;;;;;;30.33;5.22;;;;;;;;;;5052837;28;20109;-69
2021/11/18 09:36:27;;;;;;;33.40;5.32;;;;;;;;;;5051632;28;20512;-70
2021/11/18 09:38:55;;;;;;;29.35;4.78;;;;;;;;;;5052519;28;20064;-70
2021/11/18 09:41:45;;;;;;;27.65;4.63;;;;;;;;;;5050953;28;20056;-69
2021/11/18 09:44:23;;;;;;;30.17;5.65;;;;;;;;;;5058264;28;20041;-70
2021/11/18 09:46:49;;;;;;;31.33;4.80;;;;;;;;;;5050384;28;20451;-69
2021/11/18 09:49:16;;;;;;;29.98;4.97;;;;;;;;;;5051721;28;20425;-70
2021/11/18 09:51:44;;;;;;;21.20;4.75;;;;;;;;;;5051620;28;20045;-70
2021/11/18 09:54:15;;;;;;;27.67;4.43;;;;;;;;;;5051983;28;20270;-70
2021/11/18 09:56:54;;;;;;;24.67;4.32;;;;;;;;;;5051341;28;20146;-69
2021/11/18 09:59:21;;;;;;;29.45;4.80;;;;;;;;;;5050765;28;20083;-70
2021/11/18 10:01:57;;;;;;;38.33;5.68;;;;;;;;;;5065150;28;20504;-69
2021/11/18 10:04:26;;;;;;;31.02;4.70;;;;;;;;;;5052594;28;20037;-69
2021/11/18 10:06:54;;;;;;;30.75;4.93;;;;;;;;;;5050204;28;20076;-69
2021/11/18 10:09:27;;;;;;;27.45;4.32;;;;;;;;;;5050814;28;20044;-69
2021/11/18 10:12:08;;;;;;;25.57;4.87;;;;;;;;;;5064160;28;20069;-70
2021/11/18 10:14:39;;;;;;;33.97;5.43;;;;;;;;;;5050120;28;20037;-69
2021/11/18 10:17:15;;;;;;;35.70;7.65;;;;;;;;;;5050891;28;20044;-69
2021/11/18 10:19:43;;;;;;;26.17;4.80;;;;;;;;;;5050904;28;20052;-70
2021/11/18 10:22:10;;;;;;;25.05;4.53;;;;;;;;;;5051732;28;20072;-70
2021/11/18 10:24:38;;;;;;;32.28;5.10;;;;;;;;;;5050792;28;20545;-69
2021/11/18 10:27:10;;;;;;;21.38;4.47;;;;;;;;;;5051697;28;20116;-70
2021/11/18 10:29:37;;;;;;;30.70;5.35;;;;;;;;;;5050625;28;20049;-70
2021/11/18 10:32:07;;;;;;;30.15;5.05;;;;;;;;;;5052321;28;20053;-70
2021/11/18 10:34:52;;;;;;;29.85;4.22;;;;;;;;;;5051295;28;20041;-70
2021/11/18 10:37:26;;;;;;;27.98;5.55;;;;;;;;;;5050744;28;20170;-69
2021/11/18 10:39:52;;;;;;;31.33;4.55;;;;;;;;;;5051533;28;20040;-69
2021/11/18 10:42:20;;;;;;;25.85;4.50;;;;;;;;;;5049999;28;20366;-69
2021/11/18 10:44:50;;;;;;;38.53;6.43;;;;;;;;;;5050620;28;20141;-69
2021/11/18 10:47:18;;;;;;;32.80;4.65;;;;;;;;;;5050639;28;20425;-70
2021/11/18 10:50:11;;;;;;;24.73;4.60;;;;;;;;;;5049449;28;20041;-70
2021/11/18 10:52:39;;;;;;;27.73;4.50;;;;;;;;;;5050031;28;20120;-70
2021/11/18 10:55:09;;;;;;;32.00;4.70;;;;;;;;;;5050531;28;20041;-69
2021/11/18 10:57:36;;;;;;;29.88;6.15;;;;;;;;;;5051627;28;20174;-70
2021/11/18 11:00:14;;;;;;;23.88;4.43;;;;;;;;;;5047920;28;20049;-70
2021/11/18 11:02:40;;;;;;;34.78;5.60;;;;;;;;;;5067062;28;20041;-71
2021/11/18 11:05:23;;;;;;;32.35;4.35;;;;;;;;;;5066980;28;20041;-71
2021/11/18 11:07:51;;;;;;;22.85;4.40;;;;;;;;;;5050796;28;20552;-72
2021/11/18 11:10:19;;;;;;;30.63;5.05;;;;;;;;;;5048686;28;20061;-71
2021/11/18 11:12:56;;;;;;;29.13;5.03;;;;;;;;;;5040176;28;20060;-71
2021/11/18 11:15:45;;;;;;;28.05;4.70;;;;;;;;;;5051100;28;20076;-71
2021/11/18 11:18:30;;;;;;;23.05;4.72;;;;;;;;;;5050798;28;20044;-71
2021/11/18 11:21:19;;;;;;;31.60;4.60;;;;;;;;;;5049762;28;20080;-71
2021/11/18 11:23:45;;;;;;;24.38;4.85;;;;;;;;;;5048275;28;20052;-71
2021/11/18 11:26:23;;;;;;;34.50;4.53;;;;;;;;;;5049655;28;20059;-71
2021/11/18 11:28:49;;;;;;;35.92;5.90;;;;;;;;;;5049714;28;20079;-71
2021/11/18 11:31:22;;;;;;;24.20;4.50;;;;;;;;;;5048732;28;20048;-71
2021/11/18 11:33:50;;;;;;;23.45;5.05;;;;;;;;;;5047726;28;20041;-71
2021/11/18 11:36:20;;;;;;;26.42;5.03;;;;;;;;;;5057934;28;20516;-70
2021/11/18 11:38:46;;;;;;;27.95;5.65;;;;;;;;;;5048552;28;20037;-71
2021/11/18 11:41:28;;;;;;;26.23;4.93;;;;;;;;;;5049259;28;20037;-71
2021/11/18 11:43:55;;;;;;;26.58;4.65;;;;;;;;;;5041356;28;20040;-71
2021/11/18 11:46:26;;;;;;;28.63;5.60;;;;;;;;;;5049707;28;20076;-71
2021/11/18 11:49:01;;;;;;;33.80;5.22;;;;;;;;;;5049470;28;20041;-70
2021/11/18 11:51:31;;;;;;;28.65;4.75;;;;;;;;;;5047584;28;20119;-70
2021/11/18 11:53:57;;;;;;;28.15;5.55;;;;;;;;;;5049366;28;20508;-71
2021/11/18 11:56:30;;;;;;;32.03;4.82;;;;;;;;;;5049004;28;20051;-70
2021/11/18 11:58:59;;;;;;;24.30;4.13;;;;;;;;;;5048717;28;20378;-70
2021/11/18 12:01:25;;;;;;;27.50;4.53;;;;;;;;;;5049948;28;20037;-70
2021/11/18 12:03:57;;;;;;;28.30;5.00;;;;;;;;;;5055489;28;20080;-70
2021/11/18 12:06:38;;;;;;;32.08;5.05;;;;;;;;;;5049611;28;20049;-70
2021/11/18 12:09:07;;;;;;;32.97;5.13;;;;;;;;;;5050149;28;20048;-70
2021/11/18 12:11:36;;;;;;;34.15;6.60;;;;;;;;;;5049016;28;20048;-70
2021/11/18 12:14:11;;;;;;;28.23;6.50;;;;;;;;;;5047791;28;20044;-70
2021/11/18 12:16:42;;;;;;;34.03;4.68;;;;;;;;;;5049742;28;20057;-70
2021/11/18 12:19:14;;;;;;;31.13;5.53;;;;;;;;;;5062263;28;20049;-70
2021/11/18 12:21:40;;;;;;;32.83;6.25;;;;;;;;;;5052095;28;20063;-70
2021/11/18 12:24:08;;;;;;;36.53;6.07;;;;;;;;;;5054326;28;20116;-70
2021/11/18 12:27:00;;;;;;;23.33;4.82;;;;;;;;;;5052601;28;20080;-70
2021/11/18 12:29:31;;;;;;;27.30;5.45;;;;;;;;;;5052895;28;20457;-70
2021/11/18 12:32:01;;;;;;;27.52;6.03;;;;;;;;;;5052851;28;20568;-70
2021/11/18 12:34:50;;;;;;;29.80;5.70;;;;;;;;;;5052165;28;20032;-70
2021/11/18 12:37:17;;;;;;;31.15;5.05;;;;;;;;;;5054994;28;20041;-70
2021/11/18 12:39:45;;;;;;;33.70;5.57;;;;;;;;;;5054365;28;20119;-69
2021/11/18 12:42:31;;;;;;;32.20;4.93;;;;;;;;;;5051957;28;20053;-70
2021/11/18 12:45:05;;;;;;;24.00;4.50;;;;;;;;;;5054060;28;20037;-70
2021/11/18 12:47:41;;;;;;;32.90;5.38;;;;;;;;;;5053134;28;20096;-70
2021/11/18 12:50:11;;;;;;;35.50;5.85;;;;;;;;;;5052826;28;20052;-69
2021/11/18 12:52:40;;;;;;;32.40;5.32;;;;;;;;;;5052840;28;20110;-69
2021/11/18 12:55:13;;;;;;;33.55;6.13;;;;;;;;;;5053052;28;20447;-69
2021/11/18 12:57:42;;;;;;;33.20;5.85;;;;;;;;;;5053715;28;20549;-70
2021/11/18 13:00:10;;;;;;;29.95;4.97;;;;;;;;;;5035793;28;20044;-70
2021/11/18 13:02:37;;;;;;;32.30;6.22;;;;;;;;;;5053273;28;20397;-69
2021/11/18 13:05:24;;;;;;;33.95;6.03;;;;;;;;;;5053724;28;20112;-70
2021/11/18 13:07:52;;;;;;;40.20;6.68;;;;;;;;;;5063062;28;20065;-70
2021/11/18 13:10:18;;;;;;;35.15;6.13;;;;;;;;;;5048591;28;20049;-69
2021/11/18 13:12:46;;;;;;;35.38;6.50;;;;;;;;;;5052405;28;20040;-70
2021/11/18 13:15:14;;;;;;;38.08;6.97;;;;;;;;;;5053453;28;20033;-69
2021/11/18 13:17:44;;;;;;;33.97;6.30;;;;;;;;;;5052316;28;20091;-69
2021/11/18 13:20:14;;;;;;;31.65;5.22;;;;;;;;;;5052206;28;20493;-70
2021/11/18 13:22:45;;;;;;;33.97;6.38;;;;;;;;;;5051590;28;20049;-69
2021/11/18 13:25:13;;;;;;;33.67;7.28;;;;;;;;;;5048802;28;20052;-69
2021/11/18 13:27:48;;;;;;;30.90;5.70;;;;;;;;;;5053044;28;20055;-69
2021/11/18 13:30:32;;;;;;;28.08;5.40;;;;;;;;;;5050779;28;20080;-70
2021/11/18 13:32:58;;;;;;;;;;;;;;;;;;5050029;28;20037;-70
2021/11/18 13:35:29;;;;;;;23.50;4.35;;;;;;;;;;5052143;28;20276;-71
2021/11/18 13:38:05;;;;;;;25.17;6.05;;;;;;;;;;5052087;28;20060;-70
2021/11/18 13:40:31;;;;;;;36.03;5.68;;;;;;;;;;5060246;28;20087;-70
2021/11/18 13:42:58;;;;;;;24.67;5.55;;;;;;;;;;5052673;28;20045;-70
2021/11/18 13:45:26;;;;;;;34.95;5.85;;;;;;;;;;5050576;28;20554;-71
2021/11/18 13:47:56;;;;;;;23.02;5.50;;;;;;;;;;5051501;28;20156;-71
2021/11/18 13:50:24;;;;;;;25.13;5.32;;;;;;;;;;5051489;28;20076;-71
2021/11/18 13:52:58;;;;;;;22.85;4.45;;;;;;;;;;5050911;28;20051;-71
2021/11/18 13:55:28;;;;;;;30.90;5.00;;;;;;;;;;5050933;28;20044;-70
2021/11/18 13:57:55;;;;;;;32.83;5.60;;;;;;;;;;5050159;28;20079;-71
2021/11/18 14:00:31;;;;;;;29.85;4.78;;;;;;;;;;5049589;28;20053;-71
2021/11/18 14:03:03;;;;;;;33.78;6.03;;;;;;;;;;5050404;28;20049;-70
2021/11/18 14:05:35;;;;;;;32.00;6.28;;;;;;;;;;5049123;28;20088;-71
2021/11/18 14:08:07;;;;;;;25.33;6.05;;;;;;;;;;5051222;28;20052;-72
2021/11/18 14:10:35;;;;;;;29.83;6.35;;;;;;;;;;5049666;28;20041;-70
2021/11/18 14:13:13;;;;;;;33.25;6.72;;;;;;;;;;5051967;28;20115;-70
2021/11/18 14:15:53;;;;;;;38.08;7.32;;;;;;;;;;5047450;28;20435;-70
2021/11/18 14:18:22;;;;;;;28.52;4.93;;;;;;;;;;5051543;28;20364;-71
2021/11/18 14:21:01;;;;;;;34.95;5.05;;;;;;;;;;5058792;28;20063;-69
2021/11/18 14:23:31;;;;;;;29.65;5.18;;;;;;;;;;5049649;28;20368;-69
2021/11/18 14:26:00;;;;;;;24.90;5.28;;;;;;;;;;5050941;28;20041;-70
2021/11/18 14:28:33;;;;;;;32.15;4.97;;;;;;;;;;5045300;28;20038;-69
2021/11/18 14:31:00;;;;;;;33.17;5.80;;;;;;;;;;5049994;28;20049;-69
2021/11/18 14:33:39;;;;;;;33.20;5.95;;;;;;;;;;5045865;28;20033;-69
2021/11/18 14:36:14;;;;;;;31.25;6.10;;;;;;;;;;5044441;28;20601;-70
2021/11/18 14:38:44;;;;;;;26.80;5.07;;;;;;;;;;5048336;28;20137;-69